createdAt,value
2022-12-25T08:03:40.950Z,139.20
2022-12-25T08:06:45.254Z,95.10
2022-12-25T08:09:49.727Z,70.05
2022-12-25T08:12:56.243Z,128.77
2022-12-25T08:16:01.832Z,149.25
2022-12-25T08:19:06.199Z,209.15
2022-12-25T08:22:10.658Z,113.85
2022-12-25T08:25:15.909Z,240.68
2022-12-25T08:28:20.402Z,187.85
2022-12-25T08:31:27.970Z,221.77
2022-12-25T08:34:32.105Z,166.73
2022-12-25T08:37:36.491Z,170.17
2022-12-25T08:40:40.992Z,234.82
2022-12-25T08:43:45.759Z,173.63
2022-12-25T08:46:50.044Z,178.43
2022-12-25T08:49:54.364Z,219.23
2022-12-25T08:52:58.472Z,128.57
2022-12-25T08:56:04.581Z,163.52
2022-12-25T08:59:09.048Z,91.50
2022-12-25T09:02:13.821Z,76.68
2022-12-25T09:05:18.409Z,84.32
2022-12-25T09:08:23.035Z,114.97
2022-12-25T09:11:27.175Z,70.28
2022-12-25T09:14:31.621Z,133.37
2022-12-25T09:17:36.264Z,73.28
2022-12-25T09:20:40.605Z,49.95
2022-12-25T09:23:45.239Z,88.73
2022-12-25T09:26:49.392Z,72.68
2022-12-25T09:29:54.030Z,60.08
2022-12-25T09:32:58.777Z,68.00
2022-12-25T09:36:08.662Z,65.43
2022-12-25T09:39:13.080Z,50.92
2022-12-25T09:42:22.455Z,35.80
2022-12-25T09:45:35.744Z,36.25
2022-12-25T09:48:45.600Z,46.78
2022-12-25T09:51:59.170Z,44.15
2022-12-25T09:55:21.179Z,45.20
2022-12-25T09:58:26.052Z,27.30
2022-12-25T10:01:44.017Z,22.75
2022-12-25T10:05:04.863Z,37.30
2022-12-25T10:08:16.536Z,53.35
2022-12-25T10:11:52.355Z,42.70
2022-12-25T10:15:33.418Z,32.15
2022-12-25T10:18:37.992Z,39.25
2022-12-25T10:21:42.699Z,51.72
2022-12-25T10:24:52.850Z,47.40
2022-12-25T10:28:05.196Z,43.78
2022-12-25T10:31:23.160Z,49.45
2022-12-25T10:34:28.837Z,54.38
2022-12-25T10:37:33.596Z,53.80
2022-12-25T10:41:02.724Z,43.10
2022-12-25T10:44:15.747Z,44.45
2022-12-25T10:47:25.388Z,44.33
2022-12-25T10:50:30.034Z,50.70
2022-12-25T10:53:39.746Z,43.07
2022-12-25T10:57:03.447Z,42.13
2022-12-25T11:00:21.492Z,38.28
2022-12-25T11:03:31.290Z,45.03
2022-12-25T11:06:35.866Z,46.22
2022-12-25T11:09:40.617Z,44.58
2022-12-25T11:12:46.003Z,36.53
2022-12-25T11:16:02.609Z,34.85
2022-12-25T11:19:30.359Z,47.05
2022-12-25T11:22:37.256Z,32.13
2022-12-25T11:25:42.059Z,44.20
2022-12-25T11:28:48.750Z,37.25
2022-12-25T11:31:56.047Z,36.13
2022-12-25T11:35:02.499Z,40.10
2022-12-25T11:38:09.264Z,42.83
2022-12-25T11:41:15.348Z,41.70
2022-12-25T11:44:38.159Z,43.38
2022-12-25T11:48:02.360Z,28.80
2022-12-25T11:51:07.192Z,37.53
2022-12-25T11:54:11.264Z,42.20
2022-12-25T11:57:15.959Z,39.38
2022-12-25T12:00:21.201Z,27.20
2022-12-25T12:03:33.736Z,42.08
2022-12-25T12:06:38.096Z,47.67
2022-12-25T12:09:54.468Z,42.30
2022-12-25T12:13:13.373Z,39.33
2022-12-25T12:16:17.747Z,45.80
2022-12-25T12:19:30.485Z,33.00
2022-12-25T12:22:35.779Z,39.58
2022-12-25T12:25:42.685Z,31.13
2022-12-25T12:28:47.734Z,40.20
2022-12-25T12:31:53.542Z,33.22
2022-12-25T12:34:58.652Z,33.63
2022-12-25T12:38:07.916Z,32.92
2022-12-25T12:41:14.592Z,38.75
2022-12-25T12:44:21.570Z,32.83
2022-12-25T12:47:40.383Z,26.13
2022-12-25T12:50:44.465Z,24.02
2022-12-25T12:53:48.972Z,30.17
2022-12-25T12:56:59.347Z,27.42
2022-12-25T13:00:11.322Z,23.38
2022-12-25T13:03:37.289Z,32.17
2022-12-25T13:07:10.149Z,33.70
2022-12-25T13:10:35.993Z,31.48
2022-12-25T13:13:43.761Z,21.25
2022-12-25T13:16:51.593Z,26.63
2022-12-25T13:19:59.556Z,25.23
2022-12-25T13:23:24.231Z,26.58
2022-12-25T13:26:29.476Z,33.80
2022-12-25T13:29:36.733Z,28.00
2022-12-25T13:32:41.845Z,28.20
2022-12-25T13:35:47.170Z,30.80
2022-12-25T13:38:54.008Z,20.98
2022-12-25T13:42:05.706Z,23.50
2022-12-25T13:45:13.246Z,19.67
2022-12-25T13:48:20.130Z,26.80
2022-12-25T13:51:24.530Z,14.05
2022-12-25T13:54:29.171Z,20.85
2022-12-25T13:57:37.597Z,21.25
2022-12-25T14:00:52.489Z,26.55
2022-12-25T14:03:56.959Z,24.35
2022-12-25T14:07:10.085Z,28.90
2022-12-25T14:10:14.423Z,23.17
2022-12-25T14:13:22.410Z,22.92
2022-12-25T14:16:29.351Z,18.45
2022-12-25T14:19:34.537Z,16.42
2022-12-25T14:22:38.751Z,27.02
2022-12-25T14:25:47.529Z,23.83
2022-12-25T14:29:05.703Z,18.52
2022-12-25T14:32:17.135Z,24.50
2022-12-25T14:35:23.736Z,24.27
2022-12-25T14:38:35.008Z,12.57
2022-12-25T14:41:41.899Z,23.70
2022-12-25T14:44:58.696Z,23.38
2022-12-25T14:48:22.891Z,16.92
2022-12-25T14:51:30.700Z,14.85
2022-12-25T14:54:36.559Z,23.20
2022-12-25T14:57:46.730Z,20.60
2022-12-25T15:01:00.609Z,14.75
2022-12-25T15:04:09.711Z,15.43
2022-12-25T15:07:29.732Z,11.95
2022-12-25T15:13:59.568Z,14.57
2022-12-25T15:17:04.477Z,15.15
2022-12-25T15:20:13.061Z,14.05
2022-12-25T15:23:20.014Z,17.08
2022-12-25T15:26:26.817Z,17.33
2022-12-25T15:30:07.742Z,11.73
2022-12-25T15:32:55.961Z,8.07
2022-12-25T15:36:00.885Z,12.80
2022-12-25T15:39:05.478Z,17.73
2022-12-25T15:42:15.065Z,26.73
2022-12-25T15:45:26.071Z,18.13
2022-12-25T15:48:30.793Z,17.90
2022-12-25T15:51:35.359Z,17.10
2022-12-25T15:54:39.879Z,16.15
2022-12-25T15:57:47.480Z,19.60
2022-12-25T16:00:52.374Z,14.40
2022-12-25T16:03:56.790Z,20.92
2022-12-25T16:07:01.522Z,25.85
2022-12-25T16:13:11.431Z,20.33
2022-12-25T16:16:15.797Z,22.65
2022-12-25T16:19:20.078Z,15.65
2022-12-25T16:22:28.345Z,16.77
2022-12-25T16:25:32.818Z,18.00
2022-12-25T16:28:37.178Z,12.45
2022-12-25T16:31:41.883Z,11.40
2022-12-25T16:34:48.511Z,15.40
2022-12-25T16:37:53.145Z,16.40
2022-12-25T16:41:01.674Z,11.82
2022-12-25T16:44:11.165Z,9.75
2022-12-25T16:47:15.307Z,11.63
2022-12-25T16:50:19.906Z,8.93
2022-12-25T16:53:24.320Z,16.30
2022-12-25T16:56:30.879Z,14.40
2022-12-25T16:59:35.962Z,16.77
2022-12-25T17:02:40.969Z,13.13
2022-12-25T17:05:45.814Z,13.30
2022-12-25T17:08:51.990Z,25.58
2022-12-25T17:11:56.375Z,21.55
2022-12-25T17:15:00.638Z,13.43
2022-12-25T17:18:04.970Z,12.73
2022-12-25T17:21:09.634Z,17.90
2022-12-25T17:24:15.073Z,16.13
2022-12-25T17:27:19.722Z,16.88
2022-12-25T17:30:23.916Z,19.35
2022-12-25T17:33:28.439Z,17.55
2022-12-25T17:36:33.162Z,16.95
2022-12-25T17:39:38.516Z,15.93
2022-12-25T17:42:43.137Z,15.65
2022-12-25T17:45:47.311Z,12.83
2022-12-25T17:48:52.750Z,15.87
2022-12-25T17:51:57.198Z,19.00
2022-12-25T17:55:01.703Z,25.90
2022-12-25T17:58:06.336Z,18.73
2022-12-25T18:01:12.405Z,15.55
2022-12-25T18:04:17.069Z,19.85
2022-12-25T18:07:21.231Z,15.80
2022-12-25T18:10:25.729Z,19.87
2022-12-25T18:13:30.663Z,19.70
2022-12-25T18:16:37.446Z,23.45
2022-12-25T18:19:41.853Z,17.95
2022-12-25T18:22:46.025Z,22.88
2022-12-25T18:25:50.575Z,32.00
2022-12-25T18:28:55.741Z,25.93
2022-12-25T18:32:00.353Z,33.13
2022-12-25T18:35:05.499Z,38.45
2022-12-25T18:41:15.292Z,41.80
2022-12-25T18:44:19.454Z,41.50
2022-12-25T18:47:24.055Z,52.47
2022-12-25T18:50:28.437Z,62.03
2022-12-25T18:53:34.349Z,58.67
2022-12-25T18:56:38.796Z,67.18
2022-12-25T18:59:43.225Z,65.40
2022-12-25T19:02:48.355Z,47.78
2022-12-25T19:05:53.109Z,89.22
2022-12-25T19:08:58.211Z,72.57
2022-12-25T19:12:03.015Z,97.15
2022-12-25T19:15:07.509Z,77.00
2022-12-25T19:18:11.908Z,80.38
2022-12-25T19:21:16.302Z,61.08
2022-12-25T19:24:21.443Z,82.50
2022-12-25T19:27:25.713Z,54.92
2022-12-25T19:30:30.048Z,47.10
2022-12-25T19:33:35.578Z,51.73
2022-12-25T19:36:40.610Z,54.63
2022-12-25T19:39:48.085Z,62.05
2022-12-25T19:42:52.376Z,47.05
2022-12-25T19:45:57.557Z,35.72
2022-12-25T19:49:04.313Z,47.45
2022-12-25T19:52:08.665Z,50.67
2022-12-25T19:55:13.165Z,47.85
2022-12-25T19:58:17.480Z,48.45
2022-12-25T20:01:25.185Z,35.67
2022-12-25T20:04:29.663Z,53.92
2022-12-25T20:07:34.466Z,37.90
2022-12-25T20:10:43.848Z,50.88
2022-12-25T20:13:48.900Z,51.55
2022-12-25T20:16:53.374Z,55.78
2022-12-25T20:19:57.808Z,59.03
2022-12-25T20:23:02.222Z,44.10
2022-12-25T20:26:07.259Z,49.72
2022-12-25T20:32:16.277Z,53.85
2022-12-25T20:35:20.339Z,38.80
2022-12-25T20:38:24.665Z,49.93
2022-12-25T20:41:29.862Z,41.22
2022-12-25T20:44:34.755Z,44.80
2022-12-25T20:47:39.314Z,39.72
2022-12-25T20:50:43.571Z,45.53
2022-12-25T20:53:48.522Z,56.67
2022-12-25T20:56:52.657Z,50.63
2022-12-25T20:59:57.147Z,49.33
2022-12-25T21:03:01.788Z,50.25
2022-12-25T21:06:07.340Z,36.88
2022-12-25T21:09:11.741Z,50.22
2022-12-25T21:12:15.963Z,39.67
2022-12-25T21:15:20.764Z,58.38
2022-12-25T21:18:27.478Z,50.33
2022-12-25T21:21:31.957Z,56.63
2022-12-25T21:24:36.332Z,40.07
2022-12-25T21:27:40.535Z,49.92
2022-12-25T21:30:44.913Z,62.92
2022-12-25T21:33:52.165Z,45.40
2022-12-25T21:36:56.529Z,47.75
2022-12-25T21:40:01.118Z,41.17
2022-12-25T21:43:06.463Z,47.00
2022-12-25T21:46:12.593Z,37.85
2022-12-25T21:49:37.151Z,30.98
2022-12-25T21:52:41.087Z,40.20
2022-12-25T21:56:03.987Z,34.60
2022-12-25T21:59:09.193Z,33.20
2022-12-25T22:02:13.570Z,32.00
2022-12-25T22:05:37.956Z,32.13
2022-12-25T22:08:42.007Z,27.75
2022-12-25T22:12:05.052Z,28.90
2022-12-25T22:15:10.481Z,27.70
2022-12-25T22:21:37.674Z,26.45
2022-12-25T22:24:42.483Z,22.42
2022-12-25T22:27:47.609Z,22.98
2022-12-25T22:30:52.000Z,18.92
2022-12-25T22:33:56.435Z,22.50
2022-12-25T22:37:02.207Z,22.60
2022-12-25T22:40:07.866Z,19.95
2022-12-25T22:43:12.126Z,21.05
2022-12-25T22:46:17.448Z,17.25
2022-12-25T22:49:21.920Z,17.03
2022-12-25T22:55:30.998Z,14.05
2022-12-25T22:58:35.687Z,9.57
2022-12-25T23:01:40.564Z,11.98
2022-12-25T23:04:44.857Z,17.23
2022-12-25T23:07:49.091Z,9.57
2022-12-25T23:10:53.633Z,10.07
2022-12-25T23:14:16.886Z,9.00
2022-12-25T23:17:39.827Z,9.02
2022-12-25T23:21:02.553Z,8.05
2022-12-25T23:24:27.803Z,7.25
2022-12-25T23:27:32.304Z,9.75
2022-12-25T23:30:36.744Z,8.20
2022-12-25T23:33:40.965Z,9.03
2022-12-25T23:36:45.300Z,9.63
2022-12-25T23:39:50.149Z,8.27
2022-12-25T23:42:54.782Z,10.45
2022-12-25T23:45:59.332Z,7.07
2022-12-25T23:49:03.870Z,7.88
2022-12-25T23:52:11.272Z,4.63
2022-12-25T23:55:15.335Z,7.35
2022-12-25T23:58:19.856Z,5.65
